Terminal Aerodrome Forecast
Issued by NWS

Home | Current Version | Previous Version | Text Only | Print | Product List | Glossary On
Versions: 1 2 3 4 5 6 7 8 9 10 11 12 13 14 15 16 17
000
FTUS43 KGLD 261731
TAFMCK
TAF
KMCK 261731Z 2618/2718 06012G20KT P6SM SCT050
     FM270000 05011KT P6SM VCTS BKN025CB
     FM270600 03011KT P6SM BKN015
     FM270900 02009KT 5SM BR BKN010
      TEMPO 2710/2714 1SM BR BKN005=

USA.gov is the U.S. government's official web portal to all federal, state and local government web resources and services.